createdAt,value
2022-09-14T00:01:26.864Z,64.50
2022-09-14T00:03:56.202Z,64.70
2022-09-14T00:06:23.746Z,64.80
2022-09-14T00:08:55.082Z,64.70
2022-09-14T00:11:23.821Z,64.80
2022-09-14T00:13:50.848Z,65.00
2022-09-14T00:16:26.197Z,65.00
2022-09-14T00:18:54.930Z,65.10
2022-09-14T00:21:22.134Z,65.10
2022-09-14T00:23:48.931Z,65.20
2022-09-14T00:26:18.554Z,65.40
2022-09-14T00:28:47.976Z,65.40
2022-09-14T00:31:14.883Z,65.50
2022-09-14T00:33:43.293Z,65.60
2022-09-14T00:36:13.541Z,65.60
2022-09-14T00:39:19.098Z,66.40
2022-09-14T00:41:53.362Z,65.70
2022-09-14T00:44:25.066Z,65.70
2022-09-14T00:46:56.037Z,65.70
2022-09-14T00:49:35.475Z,65.70
2022-09-14T00:52:16.276Z,65.80
2022-09-14T00:54:47.529Z,65.70
2022-09-14T00:57:16.194Z,65.60
2022-09-14T00:59:44.044Z,65.60
2022-09-14T01:02:14.892Z,65.70
2022-09-14T01:04:43.256Z,65.70
2022-09-14T01:07:19.037Z,65.70
2022-09-14T01:09:57.473Z,65.80
2022-09-14T01:12:51.887Z,65.90
2022-09-14T01:15:29.812Z,65.80
2022-09-14T01:18:12.667Z,65.60
2022-09-14T01:20:46.543Z,65.70
2022-09-14T01:23:37.767Z,65.70
2022-09-14T01:26:38.143Z,65.80
2022-09-14T01:29:26.543Z,65.80
2022-09-14T01:32:04.376Z,65.70
2022-09-14T01:34:31.731Z,65.50
2022-09-14T01:37:06.625Z,65.50
2022-09-14T01:39:35.963Z,65.60
2022-09-14T01:42:03.708Z,65.80
2022-09-14T01:44:35.775Z,65.80
2022-09-14T01:47:09.836Z,66.00
2022-09-14T01:49:43.228Z,65.90
2022-09-14T01:52:27.498Z,65.90
2022-09-14T01:55:04.252Z,66.00
2022-09-14T01:57:48.219Z,66.00
2022-09-14T02:00:19.199Z,65.90
2022-09-14T02:02:58.630Z,65.80
2022-09-14T02:05:38.886Z,65.80
2022-09-14T02:08:05.680Z,65.90
2022-09-14T02:10:32.922Z,65.90
2022-09-14T02:12:59.597Z,66.00
2022-09-14T02:15:27.138Z,66.00
2022-09-14T02:17:54.795Z,65.90
2022-09-14T02:20:41.673Z,65.90
2022-09-14T02:23:08.735Z,66.00
2022-09-14T02:25:36.485Z,66.10
2022-09-14T02:28:04.844Z,66.30
2022-09-14T02:30:39.675Z,66.30
2022-09-14T02:33:15.785Z,66.30
2022-09-14T02:35:49.780Z,66.40
2022-09-14T02:38:42.059Z,66.40
2022-09-14T02:41:39.723Z,66.30
2022-09-14T02:44:11.835Z,66.40
2022-09-14T02:46:51.226Z,66.40
2022-09-14T02:49:48.569Z,66.40
2022-09-14T02:52:40.045Z,66.40
2022-09-14T02:55:11.899Z,66.40
2022-09-14T02:58:06.908Z,66.40
2022-09-14T03:00:38.979Z,66.40
2022-09-14T03:03:06.885Z,66.30
2022-09-14T03:05:34.254Z,66.20
2022-09-14T03:08:01.845Z,66.20
2022-09-14T03:10:28.765Z,66.20
2022-09-14T03:12:56.840Z,66.30
2022-09-14T03:15:23.723Z,66.20
2022-09-14T03:17:51.398Z,66.30
2022-09-14T03:20:22.409Z,66.40
2022-09-14T03:22:49.282Z,66.50
2022-09-14T03:25:16.500Z,66.60
2022-09-14T03:27:44.239Z,66.60
2022-09-14T03:30:11.463Z,66.80
2022-09-14T03:32:38.287Z,66.90
2022-09-14T03:35:05.391Z,67.00
2022-09-14T03:37:32.008Z,67.10
2022-09-14T03:39:58.621Z,67.30
2022-09-14T03:42:25.253Z,67.40
2022-09-14T03:44:51.819Z,67.50
2022-09-14T03:47:18.445Z,67.60
2022-09-14T03:49:45.027Z,67.70
2022-09-14T03:52:11.649Z,67.90
2022-09-14T03:54:38.232Z,67.90
2022-09-14T03:57:05.209Z,68.20
2022-09-14T03:59:31.747Z,68.30
2022-09-14T04:01:59.178Z,68.40
2022-09-14T04:04:26.588Z,68.70
2022-09-14T04:06:53.148Z,68.90
2022-09-14T04:09:19.733Z,69.00
2022-09-14T04:11:46.892Z,69.20
2022-09-14T04:14:14.403Z,69.50
2022-09-14T04:16:41.739Z,69.60
2022-09-14T04:19:10.380Z,69.70
2022-09-14T04:21:37.141Z,69.90
2022-09-14T04:24:14.584Z,70.00
2022-09-14T04:26:42.495Z,70.10
2022-09-14T04:29:10.621Z,70.10
2022-09-14T04:31:37.298Z,70.30
2022-09-14T04:34:04.098Z,70.20
2022-09-14T04:36:31.274Z,70.30
2022-09-14T04:39:00.346Z,70.50
2022-09-14T04:41:28.524Z,70.60
2022-09-14T04:43:56.503Z,70.60
2022-09-14T04:46:29.064Z,70.50
2022-09-14T04:48:55.923Z,70.70
2022-09-14T04:51:25.237Z,70.70
2022-09-14T04:53:53.731Z,70.80
2022-09-14T04:56:22.327Z,70.90
2022-09-14T04:58:52.006Z,71.00
2022-09-14T05:01:21.802Z,71.00
2022-09-14T05:03:48.762Z,71.20
2022-09-14T05:06:18.046Z,71.30
2022-09-14T05:08:45.351Z,71.40
2022-09-14T05:11:17.984Z,71.30
2022-09-14T05:13:49.569Z,71.30
2022-09-14T05:16:19.502Z,72.00
2022-09-14T05:18:46.470Z,71.30
2022-09-14T05:21:15.580Z,71.40
2022-09-14T05:23:42.785Z,71.40
2022-09-14T05:26:09.521Z,71.60
2022-09-14T05:28:36.883Z,71.60
2022-09-14T05:31:09.454Z,71.70
2022-09-14T05:33:36.777Z,71.70
2022-09-14T05:36:08.002Z,71.70
2022-09-14T05:38:38.539Z,71.70
2022-09-14T05:41:06.501Z,71.80
2022-09-14T05:43:33.548Z,71.80
2022-09-14T05:46:08.511Z,71.80
2022-09-14T05:48:36.688Z,72.00
2022-09-14T05:51:07.291Z,71.90
2022-09-14T05:53:34.596Z,72.00
2022-09-14T05:56:03.324Z,72.80
2022-09-14T05:58:30.352Z,72.20
2022-09-14T06:00:57.900Z,72.20
2022-09-14T06:03:25.045Z,72.20
2022-09-14T06:05:54.690Z,72.30
2022-09-14T06:08:21.846Z,72.40
2022-09-14T06:10:48.696Z,72.50
2022-09-14T06:13:15.360Z,72.60
2022-09-14T06:15:41.940Z,72.70
2022-09-14T06:18:08.551Z,72.70
2022-09-14T06:20:35.232Z,72.80
2022-09-14T06:23:01.826Z,72.80
2022-09-14T06:25:28.680Z,72.90
2022-09-14T06:27:55.290Z,72.70
2022-09-14T06:30:21.860Z,72.70
2022-09-14T06:32:48.416Z,72.80
2022-09-14T06:35:15.039Z,72.90
2022-09-14T06:37:41.580Z,72.80
2022-09-14T06:40:08.625Z,72.80
2022-09-14T06:42:35.656Z,72.90
2022-09-14T06:45:02.212Z,72.90
2022-09-14T06:47:32.576Z,73.00
2022-09-14T06:49:59.197Z,72.80
2022-09-14T06:52:25.752Z,72.70
2022-09-14T06:54:52.333Z,72.70
2022-09-14T06:57:19.051Z,72.60
2022-09-14T06:59:45.708Z,72.60
2022-09-14T07:02:13.632Z,72.50
2022-09-14T07:04:40.359Z,72.40
2022-09-14T07:07:06.906Z,72.30
2022-09-14T07:09:33.472Z,72.10
2022-09-14T07:12:00.037Z,72.20
2022-09-14T07:14:30.364Z,72.20
2022-09-14T07:16:58.729Z,72.00
2022-09-14T07:19:25.302Z,72.00
2022-09-14T07:21:53.803Z,71.90
2022-09-14T07:24:20.564Z,71.90
2022-09-14T07:26:47.322Z,71.90
2022-09-14T07:29:17.318Z,71.90
2022-09-14T07:31:52.524Z,71.90
2022-09-14T07:34:19.689Z,71.70
2022-09-14T07:36:46.672Z,71.40
2022-09-14T07:39:15.162Z,71.40
2022-09-14T07:41:43.256Z,71.40
2022-09-14T07:44:12.694Z,71.40
2022-09-14T07:46:41.491Z,71.60
2022-09-14T07:49:08.760Z,71.70
2022-09-14T07:51:36.662Z,71.80
2022-09-14T07:54:05.364Z,71.70
2022-09-14T07:56:32.548Z,71.70
2022-09-14T07:59:23.839Z,71.60
2022-09-14T08:01:46.709Z,71.40
2022-09-14T08:04:13.695Z,71.40
2022-09-14T08:06:44.678Z,71.50
2022-09-14T08:09:11.325Z,71.60
2022-09-14T08:11:38.526Z,71.40
2022-09-14T08:14:11.270Z,71.10
2022-09-14T08:16:39.062Z,71.00
2022-09-14T08:19:17.423Z,71.20
2022-09-14T08:21:47.115Z,71.40
2022-09-14T08:24:17.516Z,71.30
2022-09-14T08:26:44.618Z,71.10
2022-09-14T08:29:13.024Z,71.00
2022-09-14T08:31:39.955Z,70.80
2022-09-14T08:34:07.173Z,70.60
2022-09-14T08:36:36.828Z,70.50
2022-09-14T08:39:09.289Z,70.50
2022-09-14T08:41:44.834Z,70.60
2022-09-14T08:44:18.003Z,70.60
2022-09-14T08:46:53.398Z,70.50
2022-09-14T08:49:33.944Z,70.50
2022-09-14T08:52:00.539Z,70.60
2022-09-14T08:54:27.156Z,70.50
2022-09-14T08:57:18.139Z,70.40
2022-09-14T08:59:47.483Z,70.10
2022-09-14T09:02:46.504Z,70.00
2022-09-14T09:05:25.896Z,70.10
2022-09-14T09:08:26.911Z,70.00
2022-09-14T09:10:54.885Z,69.70
2022-09-14T09:13:26.237Z,69.50
2022-09-14T09:16:00.419Z,69.40
2022-09-14T09:18:39.198Z,69.40
2022-09-14T09:21:12.584Z,69.40
2022-09-14T09:23:40.928Z,69.40
2022-09-14T09:26:16.716Z,69.40
2022-09-14T09:28:49.878Z,69.30
2022-09-14T09:31:23.036Z,69.20
2022-09-14T09:33:56.160Z,69.20
2022-09-14T09:36:22.912Z,69.00
2022-09-14T09:38:49.507Z,69.00
2022-09-14T09:41:23.827Z,69.10
2022-09-14T09:44:06.949Z,69.10
2022-09-14T09:46:35.825Z,69.60
2022-09-14T09:49:06.631Z,68.70
2022-09-14T09:51:34.636Z,68.40
2022-09-14T09:57:32.083Z,68.20
2022-09-14T10:00:31.295Z,68.00
2022-09-14T10:02:58.675Z,68.20
2022-09-14T10:05:34.669Z,68.30
2022-09-14T10:08:06.949Z,68.00
2022-09-14T10:10:35.987Z,67.70
2022-09-14T10:13:06.142Z,67.60
2022-09-14T10:15:34.916Z,67.60
2022-09-14T10:18:14.144Z,67.70
2022-09-14T10:20:42.946Z,67.90
2022-09-14T10:23:26.691Z,67.90
2022-09-14T10:26:13.271Z,67.70
2022-09-14T10:28:45.847Z,67.70
2022-09-14T10:31:15.863Z,67.70
2022-09-14T10:33:42.813Z,67.90
2022-09-14T10:36:29.960Z,67.90
2022-09-14T10:39:26.156Z,68.20
2022-09-14T10:42:19.409Z,68.00
2022-09-14T10:45:00.996Z,67.90
2022-09-14T10:47:55.555Z,68.00
2022-09-14T10:50:53.734Z,67.80
2022-09-14T10:53:31.297Z,67.40
2022-09-14T10:56:10.184Z,67.30
2022-09-14T10:58:59.232Z,67.30
2022-09-14T11:02:12.156Z,67.30
2022-09-14T11:04:59.226Z,67.30
2022-09-14T11:07:35.347Z,67.10
2022-09-14T11:10:36.536Z,67.00
2022-09-14T11:13:59.012Z,66.60
2022-09-14T11:16:52.721Z,67.40
2022-09-14T11:19:43.193Z,66.60
2022-09-14T11:25:35.279Z,66.60
2022-09-14T11:28:17.134Z,66.30
2022-09-14T11:33:48.087Z,66.00
2022-09-14T11:39:35.476Z,65.50
2022-09-14T11:42:16.536Z,65.40
2022-09-14T11:44:47.555Z,65.40
2022-09-14T11:47:27.408Z,65.10
2022-09-14T11:50:00.262Z,65.00
2022-09-14T11:52:29.988Z,65.00
2022-09-14T11:54:58.526Z,64.80
2022-09-14T11:57:31.286Z,64.60
2022-09-14T12:00:07.245Z,64.60
2022-09-14T12:02:37.087Z,64.30
2022-09-14T12:05:10.345Z,64.30
2022-09-14T12:07:40.314Z,63.80
2022-09-14T12:10:16.597Z,63.50
2022-09-14T12:12:44.384Z,63.70
2022-09-14T12:15:27.017Z,64.00
2022-09-14T12:18:05.788Z,64.00
2022-09-14T12:20:43.501Z,64.00
2022-09-14T12:23:16.001Z,63.80
2022-09-14T12:26:03.665Z,63.40
2022-09-14T12:28:43.505Z,62.90
2022-09-14T12:31:55.500Z,62.90
2022-09-14T12:34:45.899Z,63.20
2022-09-14T12:37:32.400Z,62.90
2022-09-14T12:43:35.010Z,62.40
2022-09-14T12:46:12.079Z,62.10
2022-09-14T12:48:54.575Z,61.30
2022-09-14T12:51:59.825Z,61.10
2022-09-14T12:55:21.568Z,61.60
2022-09-14T12:58:26.333Z,61.60
2022-09-14T13:01:24.534Z,60.90
2022-09-14T13:03:58.084Z,60.80
2022-09-14T13:06:58.166Z,60.80
2022-09-14T13:09:46.629Z,60.20
2022-09-14T13:12:50.980Z,60.10
2022-09-14T13:15:20.844Z,59.90
2022-09-14T13:18:04.236Z,60.00
2022-09-14T13:20:33.857Z,59.80
2022-09-14T13:23:03.893Z,59.60
2022-09-14T13:25:32.857Z,58.60
2022-09-14T13:28:06.579Z,57.90
2022-09-14T13:30:43.846Z,57.20
2022-09-14T13:33:21.171Z,56.70
2022-09-14T13:36:02.937Z,56.00
2022-09-14T13:38:36.469Z,55.50
2022-09-14T13:41:17.490Z,55.20
2022-09-14T13:43:47.206Z,54.90
2022-09-14T13:46:19.646Z,55.10
2022-09-14T13:48:47.334Z,55.00
2022-09-14T13:51:14.836Z,55.20
2022-09-14T13:53:48.954Z,54.80
2022-09-14T13:56:42.694Z,54.80
2022-09-14T13:59:10.449Z,54.90
2022-09-14T14:01:43.627Z,55.40
2022-09-14T14:04:34.961Z,54.80
2022-09-14T14:07:07.354Z,53.90
2022-09-14T14:09:42.841Z,54.40
2022-09-14T14:12:11.740Z,54.70
2022-09-14T14:14:38.766Z,55.10
2022-09-14T14:17:31.808Z,55.00
2022-09-14T14:20:35.395Z,54.70
2022-09-14T14:23:19.807Z,55.00
2022-09-14T14:28:45.677Z,55.60
2022-09-14T14:31:18.263Z,55.40
2022-09-14T14:33:47.084Z,55.50
2022-09-14T14:36:15.099Z,54.80
2022-09-14T14:38:44.251Z,54.50
2022-09-14T14:41:23.659Z,54.40
2022-09-14T14:43:51.032Z,55.30
2022-09-14T14:46:18.039Z,54.30
2022-09-14T14:48:47.004Z,54.20
2022-09-14T14:51:15.173Z,54.40
2022-09-14T14:53:42.598Z,54.10
2022-09-14T14:56:13.661Z,53.80
2022-09-14T14:58:45.769Z,53.60
2022-09-14T15:01:13.812Z,53.30
2022-09-14T15:03:40.533Z,53.20
2022-09-14T15:06:17.897Z,53.00
2022-09-14T15:08:44.602Z,52.60
2022-09-14T15:11:16.946Z,52.60
2022-09-14T15:13:44.470Z,51.70
2022-09-14T15:16:11.322Z,51.70
2022-09-14T15:18:37.972Z,51.70
2022-09-14T15:21:04.748Z,51.70
2022-09-14T15:23:31.654Z,51.60
2022-09-14T15:26:01.149Z,51.10
2022-09-14T15:28:27.824Z,50.90
2022-09-14T15:30:54.415Z,51.70
2022-09-14T15:33:20.984Z,51.70
2022-09-14T15:35:55.216Z,51.30
2022-09-14T15:38:21.832Z,51.10
2022-09-14T15:40:48.549Z,51.30
2022-09-14T15:43:15.135Z,51.30
2022-09-14T15:45:42.848Z,51.40
2022-09-14T15:48:14.680Z,51.80
2022-09-14T15:50:43.564Z,51.70
2022-09-14T15:53:15.307Z,52.00
2022-09-14T15:55:44.355Z,52.30
2022-09-14T15:58:11.641Z,52.00
2022-09-14T16:00:43.219Z,51.90
2022-09-14T16:03:09.821Z,52.20
2022-09-14T16:05:40.037Z,52.10
2022-09-14T16:08:07.103Z,53.20
2022-09-14T16:10:34.341Z,52.40
2022-09-14T16:13:00.984Z,52.30
2022-09-14T16:15:27.733Z,52.40
2022-09-14T16:17:55.360Z,52.30
2022-09-14T16:20:22.527Z,52.20
2022-09-14T16:22:49.648Z,52.20
2022-09-14T16:25:16.515Z,52.70
2022-09-14T16:27:43.164Z,52.70
2022-09-14T16:30:10.404Z,53.00
2022-09-14T16:32:37.124Z,53.20
2022-09-14T16:35:07.977Z,53.50
2022-09-14T16:37:34.979Z,53.20
2022-09-14T16:40:02.819Z,53.10
2022-09-14T16:42:29.444Z,53.30
2022-09-14T16:44:55.984Z,54.00
2022-09-14T16:47:22.564Z,54.40
2022-09-14T16:49:49.203Z,54.20
2022-09-14T16:52:15.743Z,54.20
2022-09-14T16:54:42.626Z,54.30
2022-09-14T16:57:09.726Z,54.30
2022-09-14T16:59:36.419Z,54.20
2022-09-14T17:02:03.199Z,54.10
2022-09-14T17:04:29.802Z,54.10
2022-09-14T17:06:56.647Z,54.20
2022-09-14T17:09:26.523Z,54.30
2022-09-14T17:11:54.229Z,54.40
2022-09-14T17:14:28.279Z,54.40
2022-09-14T17:16:55.440Z,54.50
2022-09-14T17:19:22.115Z,54.80
2022-09-14T17:21:49.167Z,55.10
2022-09-14T17:24:17.105Z,55.30
2022-09-14T17:26:44.009Z,55.50
2022-09-14T17:29:11.385Z,55.80
2022-09-14T17:31:40.489Z,55.80
2022-09-14T17:34:09.086Z,56.00
2022-09-14T17:36:35.886Z,56.30
2022-09-14T17:39:09.198Z,56.40
2022-09-14T17:41:38.920Z,56.80
2022-09-14T17:44:06.800Z,57.10
2022-09-14T17:46:34.061Z,57.20
2022-09-14T17:49:04.111Z,57.20
2022-09-14T17:51:32.709Z,57.40
2022-09-14T17:54:00.908Z,57.30
2022-09-14T17:56:29.387Z,57.60
2022-09-14T17:59:08.023Z,57.80
2022-09-14T18:01:34.798Z,57.80
2022-09-14T18:04:04.692Z,57.80
2022-09-14T18:06:38.302Z,58.00
2022-09-14T18:09:08.992Z,58.00
2022-09-14T18:11:36.376Z,58.00
2022-09-14T18:14:04.497Z,58.00
2022-09-14T18:16:31.737Z,58.20
2022-09-14T18:18:58.741Z,58.60
2022-09-14T18:21:26.137Z,58.70
2022-09-14T18:23:54.724Z,58.90
2022-09-14T18:26:22.604Z,59.10
2022-09-14T18:28:50.924Z,59.30
2022-09-14T18:31:19.014Z,59.50
2022-09-14T18:33:58.960Z,59.60
2022-09-14T18:36:29.213Z,60.00
2022-09-14T18:38:56.939Z,60.00
2022-09-14T18:41:23.607Z,60.00
2022-09-14T18:43:53.018Z,60.00
2022-09-14T18:46:23.268Z,60.10
2022-09-14T18:48:54.084Z,60.10
2022-09-14T18:51:21.766Z,60.10
2022-09-14T18:53:49.081Z,60.10
2022-09-14T18:56:17.467Z,60.10
2022-09-14T18:58:46.284Z,60.30
2022-09-14T19:01:14.046Z,60.30
2022-09-14T19:03:42.317Z,60.40
2022-09-14T19:06:14.303Z,60.60
2022-09-14T19:08:41.904Z,60.70
2022-09-14T19:11:11.856Z,60.80
2022-09-14T19:13:39.155Z,61.00
2022-09-14T19:16:11.428Z,61.10
2022-09-14T19:18:38.832Z,61.20
2022-09-14T19:21:07.403Z,61.30
2022-09-14T19:23:35.267Z,61.40
2022-09-14T19:26:23.357Z,61.50
2022-09-14T19:28:50.038Z,61.80
2022-09-14T19:31:18.990Z,61.60
2022-09-14T19:33:45.975Z,61.80
2022-09-14T19:36:16.200Z,61.90
2022-09-14T19:38:43.480Z,62.00
2022-09-14T19:41:10.406Z,62.10
2022-09-14T19:43:37.686Z,62.20
2022-09-14T19:46:10.517Z,62.30
2022-09-14T19:48:37.872Z,62.40
2022-09-14T19:51:07.104Z,62.50
2022-09-14T19:53:35.802Z,62.60
2022-09-14T19:56:05.429Z,62.70
2022-09-14T19:58:36.316Z,62.80
2022-09-14T20:01:03.504Z,62.90
2022-09-14T20:03:30.174Z,62.90
2022-09-14T20:06:05.779Z,63.00
2022-09-14T20:08:33.818Z,63.10
2022-09-14T20:11:11.485Z,63.00
2022-09-14T20:13:39.215Z,63.10
2022-09-14T20:16:17.803Z,63.20
2022-09-14T20:18:45.702Z,63.30
2022-09-14T20:21:15.471Z,63.50
2022-09-14T20:23:52.648Z,64.50
2022-09-14T20:26:30.002Z,63.90
2022-09-14T20:28:59.848Z,64.10
2022-09-14T20:31:27.209Z,64.20
2022-09-14T20:33:54.318Z,64.50
2022-09-14T20:36:21.993Z,64.50
2022-09-14T20:38:54.419Z,64.70
2022-09-14T20:41:23.620Z,64.80
2022-09-14T20:43:50.656Z,64.80
2022-09-14T20:46:20.432Z,64.90
2022-09-14T20:48:48.592Z,65.10
2022-09-14T20:54:04.859Z,65.40
2022-09-14T20:56:33.580Z,65.50
2022-09-14T20:59:02.275Z,65.60
2022-09-14T21:01:31.380Z,65.70
2022-09-14T21:04:06.610Z,65.80
2022-09-14T21:06:36.395Z,66.00
2022-09-14T21:09:03.735Z,66.10
2022-09-14T21:11:12.009Z,65.30
2022-09-14T21:11:30.968Z,66.20
2022-09-14T21:13:58.038Z,66.20
2022-09-14T21:16:30.222Z,66.30
2022-09-14T21:19:03.096Z,66.20
2022-09-14T21:21:30.425Z,66.30
2022-09-14T21:23:58.416Z,66.30
2022-09-14T21:26:27.532Z,66.50
2022-09-14T21:28:56.984Z,66.50
2022-09-14T21:31:24.942Z,66.60
2022-09-14T21:33:54.472Z,66.60
2022-09-14T21:36:26.939Z,66.60
2022-09-14T21:38:59.577Z,66.50
2022-09-14T21:41:28.252Z,66.50
2022-09-14T21:43:55.579Z,66.60
2022-09-14T21:46:23.020Z,66.60
2022-09-14T21:48:49.918Z,66.70
2022-09-14T21:51:22.455Z,66.60
2022-09-14T21:54:00.678Z,66.70
2022-09-14T21:56:29.655Z,66.80
2022-09-14T21:59:01.320Z,66.90
2022-09-14T22:01:29.228Z,67.00
2022-09-14T22:03:56.912Z,67.20
2022-09-14T22:06:27.266Z,67.20
2022-09-14T22:08:54.504Z,67.40
2022-09-14T22:11:26.886Z,67.40
2022-09-14T22:13:55.271Z,67.50
2022-09-14T22:16:23.254Z,67.50
2022-09-14T22:18:52.762Z,67.60
2022-09-14T22:21:21.323Z,67.60
2022-09-14T22:23:57.188Z,67.70
2022-09-14T22:26:25.096Z,67.70
2022-09-14T22:28:53.603Z,67.80
2022-09-14T22:31:21.641Z,67.80
2022-09-14T22:33:49.407Z,67.90
2022-09-14T22:36:16.542Z,67.90
2022-09-14T22:38:43.145Z,68.00
2022-09-14T22:41:12.007Z,68.00
2022-09-14T22:43:39.974Z,68.00
2022-09-14T22:46:08.112Z,68.00
2022-09-14T22:48:35.296Z,68.10
2022-09-14T22:51:02.734Z,68.20
2022-09-14T22:53:29.636Z,68.20
2022-09-14T22:55:56.832Z,68.30
2022-09-14T22:58:26.975Z,68.40
2022-09-14T23:00:54.030Z,68.50
2022-09-14T23:03:20.872Z,68.50
2022-09-14T23:05:58.941Z,68.50
2022-09-14T23:08:27.089Z,68.60
2022-09-14T23:10:54.779Z,68.50
2022-09-14T23:13:21.567Z,68.60
2022-09-14T23:15:48.334Z,68.60
2022-09-14T23:18:15.126Z,68.60
2022-09-14T23:20:43.876Z,68.70
2022-09-14T23:23:11.593Z,68.70
2022-09-14T23:25:39.755Z,68.70
2022-09-14T23:28:07.736Z,68.70
2022-09-14T23:30:34.394Z,69.50
2022-09-14T23:33:01.650Z,68.80
2022-09-14T23:35:29.017Z,68.80
2022-09-14T23:37:56.213Z,68.70
2022-09-14T23:40:23.833Z,68.60
2022-09-14T23:42:50.631Z,68.60
2022-09-14T23:45:17.523Z,68.50
2022-09-14T23:47:45.910Z,68.50
2022-09-14T23:50:12.505Z,68.40
2022-09-14T23:52:40.507Z,68.50
2022-09-14T23:55:07.525Z,68.40
2022-09-14T23:57:34.150Z,68.40
